الصفحة الرئيسية
METAR-TAF:

METAR-TAF

مطار :

رامسر, إيران

دائرة عرض: 36-54N, خط طول: 050-40E, ارتفاع: -23 متر

مراقبة الطقس الحالي

تاريخ ووقت الإصدار 44 دقيقة قبل الساعة 16:00UTC
ريح 2 عقدة من الشرق
درجة الحرارة 26°درجة مئوية
الرطوبة 74%
ضغط 1009 hPa
الرؤية 10 كم أو أكثر
غيوم قليلة على ارتفاع 3000 قدم
غيوم متفرقة على ارتفاع 20000 قدم

METAR: OINR 141600Z 10002KT 9999 FEW030 SCT200 26/21 Q1009

زمن: 21:14 (16:44 UTC)


TAF: مفقودة

أرصاد الطقس والتوقعات من أكثر من 4000 مطار (تقارير الطقس للمطار METAR والتنبؤ بالطقس بالمطارTAF).

المحطات المتاحة هي النقط الصفراء والحمراء على الخريطة.

حرك المؤشر فوق النقطة لمعرفة اسم المحطة.

ثم انقر لمعرفة أرصاد وتوقعات الطقس.

لتغيير الخارطة: اضغط على الأزرار الخضراء مع رمز الصليب الأسود للتكبير. على الزر الأخضر مع شرطة للتصغير، أو على الأسهم الخضراء للخرائط المجاورة.


METAR-TAF: